Time;durP1;ratioP1;P1;durP2;ratioP2;P2;SDS_P1;SDS_P2;PMS_P1;PMS_P2;Temp;Humidity;BMP_temperature;BMP_pressure;BME280_temperature;BME280_humidity;BME280_pressure;Samples;Min_cycle;Max_cycle;Signal;HPM_P1;HPM_P2
2023/01/20 00:01:24;;;;;;;7.50;1.23;;;0.30;99.90;;;;;;4928488;29;20047;-64
2023/01/20 00:03:52;;;;;;;2.35;1.00;;;0.30;99.90;;;;;;4927538;29;20047;-64
2023/01/20 00:06:18;;;;;;;4.20;1.05;;;0.30;99.90;;;;;;4928700;29;20062;-63
2023/01/20 00:08:44;;;;;;;5.72;1.30;;;0.30;99.90;;;;;;4928843;29;20438;-63
2023/01/20 00:11:11;;;;;;;3.22;0.82;;;0.30;99.90;;;;;;4928969;29;20130;-63
2023/01/20 00:13:38;;;;;;;5.85;0.88;;;0.30;99.90;;;;;;4928077;29;20122;-63
2023/01/20 00:16:06;;;;;;;5.50;1.08;;;0.30;99.90;;;;;;4930077;29;20044;-64
2023/01/20 00:18:33;;;;;;;6.30;1.23;;;0.40;99.90;;;;;;4929548;29;20784;-63
2023/01/20 00:21:08;;;;;;;4.38;0.85;;;0.30;99.90;;;;;;4925004;29;20055;-63
2023/01/20 00:23:34;;;;;;;4.28;1.27;;;0.30;99.90;;;;;;4929482;29;20395;-63
2023/01/20 00:26:04;;;;;;;5.90;1.17;;;0.30;99.90;;;;;;4927758;29;20487;-64
2023/01/20 00:28:30;;;;;;;3.58;1.00;;;0.30;99.90;;;;;;4929778;29;20047;-64
2023/01/20 00:30:56;;;;;;;5.97;1.27;;;0.30;99.90;;;;;;4921807;29;20807;-64
2023/01/20 00:33:21;;;;;;;5.57;0.98;;;0.30;99.90;;;;;;4928523;29;20056;-64
2023/01/20 00:35:47;;;;;;;7.25;0.80;;;0.30;99.90;;;;;;4921643;29;20130;-63
2023/01/20 00:38:14;;;;;;;1.00;0.88;;;0.30;99.90;;;;;;4930248;29;20079;-63
2023/01/20 00:40:40;;;;;;;2.75;1.15;;;0.30;99.90;;;;;;4942552;29;20085;-64
2023/01/20 00:43:05;;;;;;;1.65;0.82;;;0.30;99.90;;;;;;4917316;29;20112;-63
2023/01/20 00:45:31;;;;;;;1.67;0.75;;;0.20;99.90;;;;;;4933241;29;20066;-64
2023/01/20 00:47:57;;;;;;;2.75;1.00;;;0.30;99.90;;;;;;4931999;29;20086;-63
2023/01/20 00:50:23;;;;;;;3.72;0.98;;;0.20;99.90;;;;;;4917671;29;20280;-64
2023/01/20 00:52:49;;;;;;;1.75;1.10;;;0.30;99.90;;;;;;4932263;29;20051;-64
2023/01/20 00:55:14;;;;;;;4.20;0.88;;;0.20;99.90;;;;;;4931813;29;20088;-64
2023/01/20 00:57:40;;;;;;;2.92;0.82;;;0.20;99.90;;;;;;4932701;29;20044;-64
2023/01/20 01:00:06;;;;;;;3.33;0.93;;;0.20;99.90;;;;;;4931591;29;20051;-63
2023/01/20 01:02:37;;;;;;;6.20;1.10;;;0.20;99.90;;;;;;4930861;29;20612;-64
2023/01/20 01:05:03;;;;;;;3.22;1.02;;;0.20;99.90;;;;;;4914804;29;20204;-64
2023/01/20 01:07:29;;;;;;;4.15;1.05;;;0.20;99.90;;;;;;4914957;29;20518;-63
2023/01/20 01:09:55;;;;;;;2.72;0.90;;;0.20;99.90;;;;;;4931761;29;20043;-63
2023/01/20 01:12:21;;;;;;;2.05;1.10;;;0.20;99.90;;;;;;4931746;29;20044;-64
2023/01/20 01:14:47;;;;;;;2.10;1.10;;;0.10;99.90;;;;;;4931728;29;20054;-63
2023/01/20 01:17:12;;;;;;;3.08;1.00;;;0.10;99.90;;;;;;4931483;29;20039;-64
2023/01/20 01:19:38;;;;;;;3.22;1.13;;;0.10;99.90;;;;;;4932194;29;20558;-64
2023/01/20 01:22:04;;;;;;;4.22;1.20;;;0.10;99.90;;;;;;4914396;29;20059;-64
2023/01/20 01:24:30;;;;;;;2.13;1.15;;;0.10;99.90;;;;;;4932219;29;20052;-63
2023/01/20 01:26:55;;;;;;;6.03;1.20;;;0.10;99.90;;;;;;4914403;29;20047;-63
2023/01/20 01:29:21;;;;;;;6.60;1.17;;;0.10;99.90;;;;;;4914559;29;20506;-64
2023/01/20 01:31:47;;;;;;;2.78;1.25;;;0.10;99.90;;;;;;4931242;29;20513;-63
2023/01/20 01:34:14;;;;;;;2.80;1.30;;;0.10;99.90;;;;;;4931347;29;20051;-63
2023/01/20 01:36:40;;;;;;;4.97;1.23;;;0.00;99.90;;;;;;4913873;29;20111;-64
2023/01/20 01:39:06;;;;;;;5.00;1.40;;;0.00;99.90;;;;;;4914238;29;20116;-63
2023/01/20 01:41:31;;;;;;;2.20;1.35;;;0.00;99.90;;;;;;4931263;29;20063;-63
2023/01/20 01:44:05;;;;;;;3.63;1.77;;;0.00;99.90;;;;;;4914576;29;20044;-63
2023/01/20 01:46:31;;;;;;;2.50;1.63;;;0.00;99.90;;;;;;4931211;29;20130;-63
2023/01/20 01:48:59;;;;;;;1.45;1.20;;;0.00;99.90;;;;;;4929896;29;20127;-64
2023/01/20 01:51:29;;;;;;;3.85;2.58;;;0.10;99.90;;;;;;4931235;29;20470;-63
2023/01/20 01:54:17;;;;;;;6.97;2.50;;;0.10;99.90;;;;;;4917872;29;20063;-63
2023/01/20 01:56:45;;;;;;;2.38;2.17;;;0.10;99.90;;;;;;4929246;29;20843;-64
2023/01/20 01:59:12;;;;;;;4.32;2.70;;;0.10;99.90;;;;;;4929877;29;20059;-63
2023/01/20 02:01:41;;;;;;;3.83;1.98;;;0.00;99.90;;;;;;4895864;29;20047;-63
2023/01/20 02:04:13;;;;;;;6.97;2.20;;;0.00;99.90;;;;;;4929841;29;20115;-64
2023/01/20 02:06:49;;;;;;;2.17;1.52;;;0.00;99.90;;;;;;4929459;29;20446;-64
2023/01/20 02:09:16;;;;;;;4.55;2.40;;;-0.10;99.90;;;;;;4929707;29;20537;-64
2023/01/20 02:11:51;;;;;;;5.82;2.55;;;-0.10;99.90;;;;;;4929516;29;20089;-63
2023/01/20 02:14:24;;;;;;;6.78;2.67;;;-0.10;99.90;;;;;;4928220;29;20063;-63
2023/01/20 02:17:06;;;;;;;5.40;2.80;;;-0.10;99.90;;;;;;4929985;29;20052;-64
2023/01/20 02:19:47;;;;;;;5.13;2.25;;;0.00;99.90;;;;;;4899362;29;20060;-63
2023/01/20 02:22:31;;;;;;;4.85;2.90;;;0.00;99.90;;;;;;4924395;29;20054;-64
2023/01/20 02:25:09;;;;;;;3.90;3.53;;;-0.10;99.90;;;;;;4934816;29;20052;-63
2023/01/20 02:28:02;;;;;;;6.43;3.42;;;-0.10;99.90;;;;;;4930396;29;20051;-63
2023/01/20 02:30:51;;;;;;;8.13;3.75;;;0.00;99.90;;;;;;4922384;29;20516;-63
2023/01/20 02:33:37;;;;;;;11.55;5.55;;;0.10;99.90;;;;;;4923476;29;20487;-64
2023/01/20 02:36:32;;;;;;;5.10;3.13;;;0.10;99.90;;;;;;4930549;29;20051;-64
2023/01/20 02:39:18;;;;;;;13.68;4.95;;;0.20;99.90;;;;;;4930907;29;20511;-64
2023/01/20 02:42:07;;;;;;;6.72;4.90;;;0.20;99.90;;;;;;4938102;29;20089;-63
2023/01/20 02:44:57;;;;;;;6.78;4.97;;;0.20;99.90;;;;;;4930147;29;20395;-64
2023/01/20 02:47:51;;;;;;;3.87;3.43;;;0.20;99.90;;;;;;4930760;29;20059;-63
2023/01/20 02:50:24;;;;;;;8.90;5.25;;;0.20;99.90;;;;;;4912475;29;20057;-64
2023/01/20 02:52:57;;;;;;;7.70;4.82;;;0.20;99.90;;;;;;4930362;29;20051;-64
2023/01/20 02:55:29;;;;;;;16.33;6.07;;;0.20;99.90;;;;;;4928933;29;20518;-64
2023/01/20 02:58:02;;;;;;;15.32;5.53;;;0.20;99.90;;;;;;4929879;29;20079;-64
2023/01/20 03:00:41;;;;;;;10.43;5.35;;;0.20;99.90;;;;;;4929660;29;20487;-64
2023/01/20 03:03:12;;;;;;;8.55;6.18;;;0.20;99.90;;;;;;4928827;29;20043;-64
2023/01/20 03:05:43;;;;;;;9.43;4.95;;;0.20;99.90;;;;;;4929807;29;20114;-64
2023/01/20 03:08:11;;;;;;;14.73;6.93;;;0.30;99.90;;;;;;4929934;29;20062;-64
2023/01/20 03:10:39;;;;;;;11.27;6.13;;;0.20;99.90;;;;;;4928768;29;20062;-64
2023/01/20 03:13:28;;;;;;;5.72;3.63;;;0.20;99.90;;;;;;4930498;29;20517;-64
2023/01/20 03:16:02;;;;;;;9.60;6.57;;;0.20;99.90;;;;;;4929148;29;20059;-64
2023/01/20 03:18:28;;;;;;;11.68;5.30;;;0.20;99.90;;;;;;4912021;29;20059;-64
2023/01/20 03:20:56;;;;;;;11.55;6.10;;;0.20;99.90;;;;;;4929730;29;20103;-64
2023/01/20 03:23:24;;;;;;;6.22;3.30;;;0.20;99.90;;;;;;4929725;29;20055;-64
2023/01/20 03:25:50;;;;;;;14.20;5.18;;;0.30;99.90;;;;;;4929587;29;20125;-64
2023/01/20 03:28:16;;;;;;;7.28;5.50;;;0.30;99.90;;;;;;4913251;29;20043;-63
2023/01/20 03:30:42;;;;;;;15.52;7.43;;;0.30;99.90;;;;;;4938117;29;20050;-63
2023/01/20 03:33:08;;;;;;;7.28;6.07;;;0.30;99.90;;;;;;4937210;29;20048;-64
2023/01/20 03:35:34;;;;;;;9.45;6.57;;;0.30;99.90;;;;;;4929199;29;20048;-64
2023/01/20 03:38:00;;;;;;;10.80;7.00;;;0.30;99.90;;;;;;4929332;29;20043;-64
2023/01/20 03:40:34;;;;;;;7.43;5.47;;;0.30;99.90;;;;;;4930037;29;20399;-64
2023/01/20 03:43:18;;;;;;;10.88;7.93;;;0.30;99.90;;;;;;4913122;29;20507;-64
2023/01/20 03:46:05;;;;;;;8.80;6.43;;;0.30;99.90;;;;;;4934245;29;20443;-64
2023/01/20 03:48:45;;;;;;;9.05;6.15;;;0.40;99.90;;;;;;4912118;29;20056;-64
2023/01/20 03:51:32;;;;;;;13.57;7.43;;;0.40;99.90;;;;;;4930243;29;20114;-64
2023/01/20 03:54:04;;;;;;;11.38;6.25;;;0.40;99.90;;;;;;4929429;29;20044;-64
2023/01/20 03:56:50;;;;;;;11.15;7.22;;;0.40;99.90;;;;;;4929793;29;20079;-64
2023/01/20 03:59:19;;;;;;;12.75;7.22;;;0.40;99.90;;;;;;4929872;29;20114;-64
2023/01/20 04:01:46;;;;;;;7.40;6.38;;;0.40;99.90;;;;;;4929265;29;20055;-64
2023/01/20 04:04:18;;;;;;;12.00;6.97;;;0.40;99.90;;;;;;4930054;29;20074;-64
2023/01/20 04:06:45;;;;;;;14.07;7.80;;;0.40;99.90;;;;;;4911534;29;20078;-64
2023/01/20 04:09:35;;;;;;;6.93;6.18;;;0.40;99.90;;;;;;4929661;29;20571;-64
2023/01/20 04:12:02;;;;;;;14.77;6.63;;;0.40;99.90;;;;;;4929346;29;20099;-64
2023/01/20 04:14:28;;;;;;;10.52;5.55;;;0.40;99.90;;;;;;4932670;29;20047;-64
2023/01/20 04:16:56;;;;;;;11.85;7.32;;;0.40;99.90;;;;;;4929903;29;20691;-64
2023/01/20 04:19:24;;;;;;;17.98;7.85;;;0.50;99.90;;;;;;4933298;29;20368;-64
2023/01/20 04:22:32;;;;;;;8.60;5.85;;;0.50;99.90;;;;;;4932078;29;20151;-64
2023/01/20 04:25:07;;;;;;;8.82;6.18;;;0.50;99.90;;;;;;4873402;29;20048;-64
2023/01/20 04:27:33;;;;;;;16.10;8.43;;;0.50;99.90;;;;;;4924436;29;20101;-64
2023/01/20 04:29:59;;;;;;;10.98;7.53;;;0.50;99.90;;;;;;4934509;29;20075;-64
2023/01/20 04:32:25;;;;;;;15.15;8.52;;;0.50;99.90;;;;;;4919292;29;20403;-64
2023/01/20 04:34:51;;;;;;;17.08;8.90;;;0.50;99.90;;;;;;4915786;29;20052;-64
2023/01/20 04:37:16;;;;;;;20.13;10.40;;;0.50;99.90;;;;;;4922045;29;20534;-64
2023/01/20 04:39:42;;;;;;;14.77;10.05;;;0.50;99.90;;;;;;4932615;29;20151;-64
2023/01/20 04:42:11;;;;;;;14.60;10.18;;;0.50;99.90;;;;;;4933260;29;20055;-64
2023/01/20 04:44:38;;;;;;;16.23;8.63;;;0.40;99.90;;;;;;4932668;29;20156;-65
2023/01/20 04:47:06;;;;;;;15.10;9.13;;;0.40;99.90;;;;;;4935749;29;20032;-64
2023/01/20 04:49:34;;;;;;;13.73;9.70;;;0.40;99.90;;;;;;4932850;29;20047;-64
2023/01/20 04:52:00;;;;;;;18.67;11.07;;;0.40;99.90;;;;;;4915374;29;20252;-64
2023/01/20 04:54:25;;;;;;;12.65;7.82;;;0.40;99.90;;;;;;4930966;29;20052;-64
2023/01/20 04:56:51;;;;;;;13.07;7.97;;;0.40;99.90;;;;;;4932920;29;20075;-64
2023/01/20 04:59:17;;;;;;;14.90;8.75;;;0.30;99.90;;;;;;4932265;29;20410;-64
2023/01/20 05:01:43;;;;;;;18.20;11.48;;;0.30;99.90;;;;;;4931771;29;20099;-64
2023/01/20 05:04:08;;;;;;;14.45;9.25;;;0.30;99.90;;;;;;4915223;29;20606;-64
2023/01/20 05:06:34;;;;;;;16.85;11.25;;;0.30;99.90;;;;;;4932794;29;20062;-64
2023/01/20 05:09:00;;;;;;;19.00;11.57;;;0.30;99.90;;;;;;4925500;29;20053;-64
2023/01/20 05:11:26;;;;;;;19.77;11.80;;;0.30;99.90;;;;;;4931710;29;20043;-64
2023/01/20 05:13:52;;;;;;;17.85;10.40;;;0.20;99.90;;;;;;4914489;29;20056;-64
2023/01/20 05:16:22;;;;;;;16.05;10.02;;;0.30;99.90;;;;;;4932035;29;20365;-64
2023/01/20 05:18:49;;;;;;;15.77;9.95;;;0.20;99.90;;;;;;4931730;29;20894;-64
2023/01/20 05:21:15;;;;;;;25.55;12.98;;;0.30;99.90;;;;;;4932187;29;20466;-64
2023/01/20 05:23:40;;;;;;;18.02;11.18;;;0.20;99.90;;;;;;4932131;29;20122;-64
2023/01/20 05:26:06;;;;;;;21.25;13.73;;;0.20;99.90;;;;;;4914231;29;20052;-64
2023/01/20 05:28:32;;;;;;;14.82;9.55;;;0.20;99.90;;;;;;4913353;29;20451;-64
2023/01/20 05:30:58;;;;;;;15.70;8.73;;;0.20;99.90;;;;;;4931300;29;20043;-64
2023/01/20 05:33:23;;;;;;;22.38;13.23;;;0.20;99.90;;;;;;4931414;29;20069;-64
2023/01/20 05:35:49;;;;;;;19.77;12.93;;;0.20;99.90;;;;;;4931326;29;20043;-64
2023/01/20 05:38:15;;;;;;;21.98;14.13;;;0.20;99.90;;;;;;4931376;29;20044;-64
2023/01/20 05:40:41;;;;;;;19.02;11.05;;;0.20;99.90;;;;;;4911664;29;20063;-63
2023/01/20 05:43:07;;;;;;;21.95;11.90;;;0.20;99.90;;;;;;4912070;29;20052;-64
2023/01/20 05:45:33;;;;;;;21.48;11.55;;;0.20;99.90;;;;;;4910753;29;20050;-64
2023/01/20 05:47:59;;;;;;;16.70;9.60;;;0.20;99.90;;;;;;4912291;29;20044;-64
2023/01/20 05:50:27;;;;;;;21.95;11.82;;;0.30;99.90;;;;;;4912361;29;20059;-64
2023/01/20 05:52:53;;;;;;;19.30;12.77;;;0.20;99.90;;;;;;4910651;29;20083;-64
2023/01/20 05:55:19;;;;;;;28.35;13.52;;;0.20;99.90;;;;;;4911447;29;20098;-64
2023/01/20 05:57:45;;;;;;;18.58;11.82;;;0.20;99.90;;;;;;4908293;29;20051;-64
2023/01/20 06:00:12;;;;;;;26.10;12.50;;;0.20;99.90;;;;;;4911727;29;20078;-64
2023/01/20 06:02:38;;;;;;;20.00;11.30;;;0.20;99.90;;;;;;4912541;29;20044;-64
2023/01/20 06:05:05;;;;;;;19.77;10.05;;;0.20;99.90;;;;;;4911497;29;20072;-64
2023/01/20 06:07:31;;;;;;;20.08;12.25;;;0.20;99.90;;;;;;4912566;29;20047;-64
2023/01/20 06:09:56;;;;;;;27.75;12.80;;;0.20;99.90;;;;;;4912028;29;20039;-64
2023/01/20 06:12:24;;;;;;;21.60;11.32;;;0.20;99.90;;;;;;4912573;29;20389;-63
2023/01/20 06:14:49;;;;;;;16.25;11.05;;;0.20;99.90;;;;;;4912903;29;20048;-64
2023/01/20 06:17:15;;;;;;;18.98;11.27;;;0.20;99.90;;;;;;4919590;29;20457;-64
2023/01/20 06:19:41;;;;;;;19.98;10.75;;;0.20;99.90;;;;;;4913404;29;20051;-64
2023/01/20 06:22:12;;;;;;;16.30;9.93;;;0.20;99.90;;;;;;4912024;29;20110;-64
2023/01/20 06:24:38;;;;;;;17.63;10.40;;;0.20;99.90;;;;;;4912118;29;20052;-64
2023/01/20 06:27:04;;;;;;;16.48;9.75;;;0.20;99.90;;;;;;4911983;29;20109;-64
2023/01/20 06:29:30;;;;;;;19.90;10.45;;;0.20;99.90;;;;;;4917296;29;20090;-64
2023/01/20 06:31:55;;;;;;;14.23;7.70;;;0.20;99.90;;;;;;4911221;29;20143;-64
2023/01/20 06:34:21;;;;;;;14.05;8.65;;;0.20;99.90;;;;;;4911508;29;20492;-63
2023/01/20 06:36:47;;;;;;;24.90;11.93;;;0.20;99.90;;;;;;4911683;29;20138;-64
2023/01/20 06:39:13;;;;;;;24.85;13.48;;;0.20;99.90;;;;;;4915038;29;20063;-64
2023/01/20 06:41:39;;;;;;;23.35;12.73;;;0.20;99.90;;;;;;4913775;29;20134;-64
2023/01/20 06:44:05;;;;;;;16.65;9.85;;;0.20;99.90;;;;;;4910955;29;20040;-64
2023/01/20 06:46:31;;;;;;;17.13;9.45;;;0.20;99.90;;;;;;4911236;29;20051;-64
2023/01/20 06:49:01;;;;;;;22.65;11.57;;;0.30;99.90;;;;;;4911527;29;20557;-64
2023/01/20 06:51:29;;;;;;;15.20;9.93;;;0.20;99.90;;;;;;4914194;29;20559;-64
2023/01/20 06:53:55;;;;;;;10.70;5.63;;;0.30;99.90;;;;;;4922972;29;20047;-64
2023/01/20 06:56:21;;;;;;;21.55;11.15;;;0.20;99.90;;;;;;4922310;29;20873;-64
2023/01/20 06:58:48;;;;;;;18.08;11.45;;;0.20;99.90;;;;;;4923537;29;20120;-64
2023/01/20 07:01:22;;;;;;;7.50;4.97;;;0.20;99.90;;;;;;4922955;29;20415;-64
2023/01/20 07:03:48;;;;;;;20.35;10.43;;;0.20;99.90;;;;;;4926312;29;20035;-64
2023/01/20 07:06:38;;;;;;;17.23;8.50;;;0.20;99.90;;;;;;4913736;29;20115;-64
2023/01/20 07:09:07;;;;;;;18.75;10.60;;;0.30;99.90;;;;;;4899152;29;20577;-64
2023/01/20 07:11:36;;;;;;;15.57;9.52;;;0.20;99.90;;;;;;4911717;29;20155;-64
2023/01/20 07:14:03;;;;;;;6.65;4.88;;;0.20;99.90;;;;;;4909944;29;20044;-64
2023/01/20 07:16:29;;;;;;;14.63;8.32;;;0.20;99.90;;;;;;4906753;29;20052;-64
2023/01/20 07:18:55;;;;;;;10.88;7.03;;;0.20;99.90;;;;;;4907751;29;20103;-64
2023/01/20 07:21:22;;;;;;;17.08;9.73;;;0.20;99.90;;;;;;4910448;29;20048;-64
2023/01/20 07:23:49;;;;;;;16.50;9.65;;;0.20;99.90;;;;;;4911582;29;20051;-64
2023/01/20 07:26:20;;;;;;;12.60;6.82;;;0.20;99.90;;;;;;4908684;29;20127;-64
2023/01/20 07:28:47;;;;;;;13.63;9.02;;;0.30;99.90;;;;;;4910037;29;20048;-64
2023/01/20 07:31:16;;;;;;;16.02;8.82;;;0.30;99.90;;;;;;4909497;29;20078;-64
2023/01/20 07:33:42;;;;;;;13.32;9.27;;;0.30;99.90;;;;;;4910924;29;20055;-64
2023/01/20 07:36:09;;;;;;;18.95;10.27;;;0.20;99.90;;;;;;4908797;29;20060;-64
2023/01/20 07:38:35;;;;;;;10.23;6.78;;;0.20;99.90;;;;;;4911151;29;20048;-63
2023/01/20 07:41:09;;;;;;;10.20;6.05;;;0.20;99.90;;;;;;4929442;29;20078;-64
2023/01/20 07:43:35;;;;;;;14.88;8.77;;;0.20;99.90;;;;;;4929125;29;20042;-63
2023/01/20 07:46:03;;;;;;;14.02;8.55;;;0.20;99.90;;;;;;4897302;29;20127;-63
2023/01/20 07:48:32;;;;;;;10.30;6.57;;;0.20;99.90;;;;;;4928479;29;20471;-63
2023/01/20 07:51:06;;;;;;;18.35;7.70;;;0.20;99.90;;;;;;4929701;29;20446;-63
2023/01/20 07:53:38;;;;;;;14.77;8.70;;;0.20;99.90;;;;;;4912306;29;20150;-64
2023/01/20 07:56:07;;;;;;;6.57;4.53;;;0.20;99.90;;;;;;4929403;29;20056;-64
2023/01/20 07:58:35;;;;;;;12.38;7.65;;;0.30;99.90;;;;;;4929534;29;20094;-64
2023/01/20 08:01:22;;;;;;;12.90;8.30;;;0.30;99.90;;;;;;4911143;29;20047;-64
2023/01/20 08:03:48;;;;;;;13.43;8.05;;;0.30;99.90;;;;;;4905170;29;20126;-64
2023/01/20 08:06:16;;;;;;;17.45;9.80;;;0.30;99.90;;;;;;4919377;29;20135;-64
2023/01/20 08:08:42;;;;;;;20.55;10.70;;;0.40;99.90;;;;;;4921675;29;20387;-64
2023/01/20 08:11:11;;;;;;;20.27;10.77;;;0.30;99.90;;;;;;4928548;29;20068;-64
2023/01/20 08:13:38;;;;;;;20.00;11.75;;;0.40;99.90;;;;;;4936876;29;20047;-64
2023/01/20 08:16:06;;;;;;;12.63;7.75;;;0.40;99.90;;;;;;4929342;29;20050;-64
2023/01/20 08:18:34;;;;;;;15.90;8.75;;;0.40;99.90;;;;;;4921099;29;20059;-64
2023/01/20 08:21:00;;;;;;;17.85;10.40;;;0.40;99.90;;;;;;4928463;29;20103;-63
2023/01/20 08:23:26;;;;;;;22.35;12.32;;;0.40;99.90;;;;;;4911323;29;20426;-64
2023/01/20 08:26:04;;;;;;;23.25;12.38;;;0.50;99.90;;;;;;4928297;29;20055;-64
2023/01/20 08:28:32;;;;;;;15.20;10.50;;;0.50;99.90;;;;;;4929038;29;20079;-64
2023/01/20 08:31:12;;;;;;;24.05;12.50;;;0.50;99.90;;;;;;4928876;29;20550;-63
2023/01/20 08:33:41;;;;;;;27.50;12.80;;;0.50;99.90;;;;;;4924851;29;20055;-64
2023/01/20 08:36:09;;;;;;;13.10;8.10;;;0.50;99.90;;;;;;4916314;29;20051;-64
2023/01/20 08:38:35;;;;;;;12.80;8.77;;;0.50;99.90;;;;;;4929117;29;20079;-63
2023/01/20 08:41:09;;;;;;;28.00;14.00;;;0.50;99.90;;;;;;4910817;29;20475;-64
2023/01/20 08:43:36;;;;;;;20.75;12.15;;;0.50;99.90;;;;;;4925819;29;20921;-64
2023/01/20 08:46:05;;;;;;;27.15;14.13;;;0.50;99.90;;;;;;4922574;29;20047;-63
2023/01/20 08:48:31;;;;;;;27.20;13.75;;;0.60;99.90;;;;;;4928210;29;20142;-64
2023/01/20 08:50:57;;;;;;;17.33;10.45;;;0.60;99.90;;;;;;4913753;29;20618;-63
2023/01/20 08:53:23;;;;;;;23.88;12.48;;;0.60;99.90;;;;;;4880118;29;20519;-63
2023/01/20 08:56:00;;;;;;;23.30;11.90;;;0.60;99.90;;;;;;4929211;29;20059;-63
2023/01/20 08:58:26;;;;;;;20.52;10.55;;;0.60;99.90;;;;;;4910128;29;20402;-63
2023/01/20 09:00:53;;;;;;;25.48;12.68;;;0.60;99.90;;;;;;4900373;29;20087;-63
2023/01/20 09:03:19;;;;;;;29.42;15.00;;;0.60;99.90;;;;;;4932484;29;20082;-64
2023/01/20 09:05:45;;;;;;;32.72;15.93;;;0.60;99.90;;;;;;4915206;29;20578;-63
2023/01/20 09:08:12;;;;;;;28.50;12.63;;;0.60;99.90;;;;;;4941187;29;20046;-63
2023/01/20 09:10:38;;;;;;;20.95;9.18;;;0.70;99.90;;;;;;4919437;29;20060;-63
2023/01/20 09:13:03;;;;;;;33.38;16.55;;;0.70;99.90;;;;;;4931917;29;20066;-63
2023/01/20 09:15:29;;;;;;;24.55;13.10;;;0.70;99.90;;;;;;4915807;29;20052;-64
2023/01/20 09:17:57;;;;;;;27.38;13.63;;;0.70;99.90;;;;;;4931111;29;20040;-63
2023/01/20 09:20:24;;;;;;;29.83;16.75;;;0.70;99.90;;;;;;4930648;29;20063;-63
2023/01/20 09:22:50;;;;;;;31.77;15.20;;;0.70;99.90;;;;;;4930545;29;20131;-63
2023/01/20 09:25:17;;;;;;;20.67;11.23;;;0.70;99.90;;;;;;4931895;29;20123;-63
2023/01/20 09:27:42;;;;;;;29.67;16.65;;;0.80;99.90;;;;;;4930655;29;20044;-63
2023/01/20 09:30:08;;;;;;;30.13;16.40;;;0.80;99.90;;;;;;4899078;29;20475;-63
2023/01/20 09:32:35;;;;;;;38.83;17.27;;;0.80;99.90;;;;;;4923295;29;20055;-63
2023/01/20 09:35:00;;;;;;;33.60;16.63;;;0.80;99.90;;;;;;4916891;29;20055;-63
2023/01/20 09:46:20;;;;;;;34.80;16.00;;;1.00;99.90;;;;;;4930660;29;20059;-64
2023/01/20 09:55:18;;;;;;;36.33;18.52;;;1.00;99.90;;;;;;4929430;29;20106;-63
2023/01/20 09:57:51;;;;;;;34.42;17.23;;;1.10;99.90;;;;;;4928711;29;20051;-63
2023/01/20 10:00:22;;;;;;;35.72;18.48;;;1.10;99.90;;;;;;4930267;29;20048;-63
2023/01/20 10:02:55;;;;;;;34.15;17.52;;;1.10;99.90;;;;;;4923042;29;20122;-63
2023/01/20 10:05:31;;;;;;;33.42;17.23;;;1.20;99.90;;;;;;4913308;29;20059;-63
2023/01/20 10:08:19;;;;;;;27.13;12.90;;;1.20;99.90;;;;;;4922876;29;20423;-63
2023/01/20 10:11:07;;;;;;;31.55;13.50;;;1.20;99.90;;;;;;4911208;29;20360;-63
2023/01/20 10:13:46;;;;;;;44.70;21.70;;;1.20;99.90;;;;;;4913342;29;20058;-64
2023/01/20 10:16:21;;;;;;;42.30;19.17;;;1.30;99.90;;;;;;4926289;29;20458;-63
2023/01/20 10:19:01;;;;;;;28.33;14.68;;;1.30;99.90;;;;;;4932935;29;20043;-63
2023/01/20 10:21:34;;;;;;;;;;;1.30;99.90;;;;;;4931220;29;20082;-63
2023/01/20 10:24:14;;;;;;;39.20;17.55;;;1.40;99.90;;;;;;4929850;29;19926;-63
2023/01/20 10:26:56;;;;;;;36.15;16.48;;;1.30;99.90;;;;;;4930340;29;20087;-63
2023/01/20 10:29:36;;;;;;;33.00;15.20;;;1.30;99.90;;;;;;4929432;29;20046;-63
2023/01/20 10:32:20;;;;;;;39.88;17.27;;;1.40;99.90;;;;;;4928627;29;20365;-63
2023/01/20 10:34:49;;;;;;;28.73;14.55;;;1.40;99.90;;;;;;4930162;29;20429;-63
2023/01/20 10:37:15;;;;;;;40.88;17.83;;;1.40;99.90;;;;;;4909091;29;20051;-63
2023/01/20 10:39:52;;;;;;;43.67;20.73;;;1.40;99.90;;;;;;4929053;29;20114;-63
2023/01/20 10:42:18;;;;;;;33.72;18.48;;;1.40;99.90;;;;;;4928891;29;20410;-63
2023/01/20 10:44:46;;;;;;;40.60;19.23;;;1.40;99.90;;;;;;4929861;29;20052;-63
2023/01/20 10:47:13;;;;;;;47.28;21.67;;;1.40;99.90;;;;;;4923235;29;20055;-63
2023/01/20 10:50:10;;;;;;;38.22;16.73;;;1.40;99.90;;;;;;4910324;29;20066;-63
2023/01/20 10:53:20;;;;;;;42.10;20.10;;;1.40;99.90;;;;;;4929211;29;20051;-63
2023/01/20 10:55:46;;;;;;;;;;;1.40;99.90;;;;;;4926840;29;20060;-63
2023/01/20 10:58:34;;;;;;;27.65;13.90;;;1.40;99.90;;;;;;4926220;29;19926;-63
2023/01/20 11:01:05;;;;;;;34.78;17.63;;;1.40;99.90;;;;;;4927830;29;20044;-63
2023/01/20 11:03:36;;;;;;;47.03;19.92;;;1.40;99.90;;;;;;4929228;29;20051;-63
2023/01/20 11:06:03;;;;;;;43.75;19.83;;;1.40;99.90;;;;;;4929963;29;20043;-62
2023/01/20 11:08:29;;;;;;;31.20;16.63;;;1.40;99.90;;;;;;4929419;29;20403;-62
2023/01/20 11:11:08;;;;;;;46.72;20.23;;;1.40;99.90;;;;;;4929011;29;20052;-62
2023/01/20 11:13:35;;;;;;;30.05;16.00;;;1.40;99.90;;;;;;4928906;29;20048;-62
2023/01/20 11:16:10;;;;;;;32.58;15.15;;;1.40;99.90;;;;;;4928992;29;20047;-63
2023/01/20 11:18:37;;;;;;;26.65;13.85;;;1.40;99.90;;;;;;4929444;29;20057;-62
2023/01/20 11:21:10;;;;;;;33.88;15.20;;;1.40;99.90;;;;;;4913826;29;20050;-63
2023/01/20 11:23:39;;;;;;;33.25;14.77;;;1.40;99.90;;;;;;4928307;29;20511;-62
2023/01/20 11:26:26;;;;;;;32.63;15.87;;;1.30;99.90;;;;;;4929159;29;20134;-63
2023/01/20 11:28:59;;;;;;;36.25;16.92;;;1.40;99.90;;;;;;4918120;29;20511;-62
2023/01/20 11:31:52;;;;;;;27.85;15.63;;;1.30;99.90;;;;;;4910811;29;20052;-62
2023/01/20 11:34:29;;;;;;;37.67;17.73;;;1.40;99.90;;;;;;4928492;29;20097;-62
2023/01/20 11:37:04;;;;;;;33.88;14.20;;;1.40;99.90;;;;;;4928501;29;20046;-62
2023/01/20 11:39:57;;;;;;;32.53;16.33;;;1.40;99.90;;;;;;4928249;29;20051;-62
2023/01/20 11:42:26;;;;;;;37.80;15.77;;;1.40;99.90;;;;;;4931126;29;20099;-62
2023/01/20 11:45:01;;;;;;;30.20;16.48;;;1.30;99.90;;;;;;4928631;29;20541;-63
2023/01/20 11:47:28;;;;;;;31.77;16.20;;;1.30;99.90;;;;;;4928894;29;20055;-62
2023/01/20 11:50:03;;;;;;;37.67;18.73;;;1.30;99.90;;;;;;4928920;29;20097;-62
2023/01/20 11:52:39;;;;;;;40.28;17.40;;;1.30;99.90;;;;;;4912182;29;20058;-62
2023/01/20 11:55:20;;;;;;;36.70;17.80;;;1.30;99.90;;;;;;4924338;29;20051;-62
2023/01/20 11:57:57;;;;;;;38.78;18.00;;;1.30;99.90;;;;;;4929285;29;20039;-62
2023/01/20 12:00:32;;;;;;;40.05;18.00;;;1.30;99.90;;;;;;4911890;29;20051;-62
2023/01/20 12:03:09;;;;;;;41.40;18.60;;;1.30;99.90;;;;;;4927943;29;20052;-62
2023/01/20 12:05:43;;;;;;;35.58;16.77;;;1.30;99.90;;;;;;4929399;29;20090;-62
2023/01/20 12:08:33;;;;;;;43.33;18.00;;;1.30;99.90;;;;;;4929271;29;20808;-62
2023/01/20 12:11:03;;;;;;;26.00;12.37;;;1.30;99.90;;;;;;4911715;29;20051;-62
2023/01/20 12:14:18;;;;;;;;;;;1.40;99.90;;;;;;4929840;29;20047;-62
2023/01/20 12:16:17;;;;;;;34.00;17.05;;;1.40;99.90;;;;;;4928844;29;19929;-62
2023/01/20 12:18:51;;;;;;;39.97;16.60;;;1.50;99.90;;;;;;4929958;29;20415;-63
2023/01/20 12:21:18;;;;;;;33.80;16.38;;;1.50;99.90;;;;;;4917689;29;20756;-62
2023/01/20 12:24:07;;;;;;;33.95;17.80;;;1.50;99.90;;;;;;4929037;29;20496;-62
2023/01/20 12:26:34;;;;;;;31.88;14.70;;;1.60;99.90;;;;;;4929646;29;20048;-62
2023/01/20 12:29:27;;;;;;;31.75;15.43;;;1.60;99.90;;;;;;4928700;29;20048;-62
2023/01/20 12:31:53;;;;;;;33.92;15.48;;;1.60;99.90;;;;;;4913969;29;20574;-62
2023/01/20 12:34:27;;;;;;;29.42;14.75;;;1.60;99.90;;;;;;4920924;29;20506;-62
2023/01/20 12:37:22;;;;;;;36.08;15.90;;;1.60;99.90;;;;;;4925603;29;20391;-62
2023/01/20 12:40:11;;;;;;;34.50;17.33;;;1.60;99.90;;;;;;4932621;29;20287;-62
2023/01/20 12:43:02;;;;;;;30.40;13.27;;;1.50;99.90;;;;;;4932282;29;20044;-62
2023/01/20 12:46:02;;;;;;;34.53;17.05;;;1.60;99.90;;;;;;4932835;29;20047;-62
2023/01/20 12:48:48;;;;;;;25.83;13.87;;;1.60;99.90;;;;;;4920444;29;20114;-62
2023/01/20 12:52:00;;;;;;;32.30;16.05;;;1.60;99.90;;;;;;4932021;29;20702;-62
2023/01/20 12:54:58;;;;;;;26.15;14.30;;;1.60;99.90;;;;;;4923705;29;20521;-62
2023/01/20 12:58:08;;;;;;;31.90;15.80;;;1.50;99.90;;;;;;4930483;29;20068;-62
2023/01/20 13:01:00;;;;;;;34.28;16.20;;;1.60;99.90;;;;;;4882674;29;20053;-62
2023/01/20 13:03:39;;;;;;;32.10;15.52;;;1.50;99.90;;;;;;4929157;29;20802;-62
2023/01/20 13:06:21;;;;;;;32.05;15.30;;;1.50;99.90;;;;;;4918445;29;20180;-62
2023/01/20 13:09:04;;;;;;;38.70;15.18;;;1.50;99.90;;;;;;4930725;29;20074;-62
2023/01/20 13:11:49;;;;;;;35.28;18.20;;;1.50;99.90;;;;;;4931537;29;20091;-62
2023/01/20 13:14:41;;;;;;;25.88;13.95;;;1.50;99.90;;;;;;4913814;29;20052;-63
2023/01/20 13:17:16;;;;;;;26.85;14.80;;;1.50;99.90;;;;;;4931431;29;20586;-62
2023/01/20 13:19:48;;;;;;;32.60;16.95;;;1.50;99.90;;;;;;4932405;29;20111;-62
2023/01/20 13:22:22;;;;;;;35.63;17.75;;;1.50;99.90;;;;;;4908036;29;20048;-62
2023/01/20 13:24:52;;;;;;;35.45;16.65;;;1.50;99.90;;;;;;4930695;29;20059;-62